Time;durP1;ratioP1;P1;durP2;ratioP2;P2;SDS_P1;SDS_P2;PMS_P1;PMS_P2;Temp;Humidity;BMP_temperature;BMP_pressure;BME280_temperature;BME280_humidity;BME280_pressure;Samples;Min_cycle;Max_cycle;Signal;HPM_P1;HPM_P2
2021/01/15 00:01:39;;;;;;;11.25;6.38;;;-2.10;99.90;;;;;;6218089;23;20075;-83
2021/01/15 00:04:06;;;;;;;9.30;5.70;;;-2.10;99.90;;;;;;6218629;23;20277;-83
2021/01/15 00:06:32;;;;;;;11.27;5.60;;;-2.20;99.90;;;;;;6195412;23;20437;-83
2021/01/15 00:08:58;;;;;;;14.07;7.20;;;-2.20;99.90;;;;;;6220488;23;20009;-83
2021/01/15 00:11:32;;;;;;;10.70;6.40;;;-2.20;99.90;;;;;;6218416;23;20039;-84
2021/01/15 00:13:59;;;;;;;11.23;6.28;;;-2.10;99.90;;;;;;6217910;23;20171;-84
2021/01/15 00:16:25;;;;;;;12.38;7.15;;;-2.10;99.90;;;;;;6215612;23;20008;-85
2021/01/15 00:18:55;;;;;;;10.98;6.93;;;-2.10;99.90;;;;;;6219879;23;20456;-86
2021/01/15 00:21:32;;;;;;;9.90;6.78;;;-2.10;99.90;;;;;;6191994;23;20008;-84
2021/01/15 00:24:00;;;;;;;12.55;7.60;;;-2.20;99.90;;;;;;6219380;23;20016;-84
2021/01/15 00:26:27;;;;;;;13.27;6.88;;;-2.20;99.90;;;;;;6192967;23;20028;-82
2021/01/15 00:28:53;;;;;;;13.38;6.88;;;-2.30;99.90;;;;;;6211571;23;20019;-82
2021/01/15 00:31:27;;;;;;;10.07;6.32;;;-2.30;99.90;;;;;;6202572;23;20260;-84
2021/01/15 00:33:52;;;;;;;13.90;7.85;;;-2.30;99.90;;;;;;6217015;23;20486;-84
2021/01/15 00:36:18;;;;;;;13.65;6.82;;;-2.40;99.90;;;;;;6190988;23;20001;-83
2021/01/15 00:38:44;;;;;;;11.63;6.72;;;-2.50;99.90;;;;;;6191006;23;20159;-84
2021/01/15 00:41:10;;;;;;;17.10;6.82;;;-2.50;99.90;;;;;;6217187;23;20025;-83
2021/01/15 00:43:36;;;;;;;11.95;6.30;;;-2.50;99.90;;;;;;6189800;23;20434;-82
2021/01/15 00:46:07;;;;;;;11.02;5.88;;;-2.50;99.90;;;;;;6190901;23;20388;-83
2021/01/15 00:48:36;;;;;;;11.40;5.95;;;-2.60;99.90;;;;;;6217132;23;20000;-84
2021/01/15 00:51:11;;;;;;;11.88;6.82;;;-2.60;99.90;;;;;;6217344;23;20425;-82
2021/01/15 00:53:37;;;;;;;13.02;6.80;;;-2.60;99.90;;;;;;6190914;23;19997;-84
2021/01/15 00:56:03;;;;;;;11.82;6.88;;;-2.60;99.90;;;;;;6189913;23;20011;-83
2021/01/15 00:58:29;;;;;;;11.52;6.78;;;-2.60;99.90;;;;;;6189172;23;20020;-84
2021/01/15 01:00:55;;;;;;;14.30;7.90;;;-2.60;99.90;;;;;;6190852;23;20020;-84
2021/01/15 01:03:21;;;;;;;18.77;8.77;;;-2.70;99.90;;;;;;6189418;23;20008;-84
2021/01/15 01:05:46;;;;;;;15.98;8.05;;;-2.80;99.90;;;;;;6189436;23;20023;-84
2021/01/15 01:08:12;;;;;;;12.93;7.82;;;-2.90;99.90;;;;;;6190283;23;20009;-84
2021/01/15 01:10:38;;;;;;;15.95;8.80;;;-2.90;99.90;;;;;;6217315;23;19997;-84
2021/01/15 01:13:04;;;;;;;13.68;7.28;;;-2.80;99.90;;;;;;6217404;23;20440;-84
2021/01/15 01:15:30;;;;;;;11.57;6.80;;;-3.00;99.90;;;;;;6190841;23;20091;-84
2021/01/15 01:17:55;;;;;;;13.40;7.43;;;-3.00;99.90;;;;;;6190986;23;20082;-84
2021/01/15 01:20:21;;;;;;;12.02;7.18;;;-3.00;99.90;;;;;;6217823;23;20008;-84
2021/01/15 01:22:49;;;;;;;16.17;8.10;;;-3.00;99.90;;;;;;6190410;23;20005;-83
2021/01/15 01:25:18;;;;;;;15.73;8.30;;;-3.00;99.90;;;;;;6217851;23;20005;-84
2021/01/15 01:27:45;;;;;;;15.30;7.82;;;-3.00;99.90;;;;;;6217381;23;20005;-84
2021/01/15 01:30:11;;;;;;;14.18;7.75;;;-3.10;99.90;;;;;;6190072;23;20001;-84
2021/01/15 01:32:38;;;;;;;13.10;7.03;;;-3.10;99.90;;;;;;6216838;23;20468;-83
2021/01/15 01:35:05;;;;;;;13.73;8.23;;;-3.10;99.90;;;;;;6219068;23;20047;-84
2021/01/15 01:37:30;;;;;;;16.45;8.15;;;-3.10;99.90;;;;;;6217274;23;20004;-84
2021/01/15 01:39:56;;;;;;;14.45;7.82;;;-3.10;99.90;;;;;;6217045;23;20008;-84
2021/01/15 01:42:22;;;;;;;15.48;7.57;;;-3.20;99.90;;;;;;6190985;23;20125;-84
2021/01/15 01:44:47;;;;;;;13.82;8.27;;;-3.20;99.90;;;;;;6197776;23;20008;-83
2021/01/15 01:47:13;;;;;;;14.85;8.07;;;-3.20;99.90;;;;;;6197314;23;20005;-81
2021/01/15 01:49:39;;;;;;;14.77;8.27;;;-3.20;99.90;;;;;;6219122;23;19996;-84
2021/01/15 01:52:05;;;;;;;14.63;7.97;;;-3.20;99.90;;;;;;6190773;23;20390;-84
2021/01/15 01:54:34;;;;;;;10.95;6.95;;;-3.20;99.90;;;;;;6190291;23;20013;-81
2021/01/15 01:57:02;;;;;;;10.07;6.35;;;-3.20;99.90;;;;;;6219602;23;20001;-82
2021/01/15 01:59:28;;;;;;;17.98;8.48;;;-3.20;99.90;;;;;;6233545;23;20032;-81
2021/01/15 02:01:54;;;;;;;12.35;7.05;;;-3.20;99.90;;;;;;6200391;23;20004;-83
2021/01/15 02:04:20;;;;;;;13.45;7.93;;;-3.20;99.90;;;;;;6190260;23;20016;-83
2021/01/15 02:06:46;;;;;;;15.68;8.63;;;-3.20;99.90;;;;;;6190193;23;20346;-83
2021/01/15 02:09:11;;;;;;;19.30;11.18;;;-3.20;99.90;;;;;;6217089;23;20031;-84
2021/01/15 02:11:44;;;;;;;19.30;9.35;;;-3.20;99.90;;;;;;6190503;23;20005;-84
2021/01/15 02:14:34;;;;;;;15.88;9.45;;;-3.30;99.90;;;;;;6191003;23;20441;-84
2021/01/15 02:17:01;;;;;;;17.67;9.68;;;-3.30;99.90;;;;;;6190915;23;20001;-83
2021/01/15 02:19:48;;;;;;;17.10;9.52;;;-3.40;99.90;;;;;;6231987;23;20089;-82
2021/01/15 02:22:17;;;;;;;15.02;8.95;;;-3.40;99.90;;;;;;6202019;23;20005;-80
2021/01/15 02:24:57;;;;;;;16.17;9.25;;;-3.40;99.90;;;;;;6220107;23;20020;-81
2021/01/15 02:27:32;;;;;;;16.25;7.95;;;-3.40;99.90;;;;;;6192644;23;20012;-83
2021/01/15 02:30:19;;;;;;;13.85;7.43;;;-3.50;99.90;;;;;;6192275;23;20350;-82
2021/01/15 02:33:03;;;;;;;15.95;7.65;;;-3.50;99.90;;;;;;6219474;23;19996;-82
2021/01/15 02:35:46;;;;;;;18.27;9.45;;;-3.50;99.90;;;;;;6192099;23;20011;-82
2021/01/15 02:38:29;;;;;;;17.83;10.00;;;-3.50;99.90;;;;;;6219364;23;20011;-83
2021/01/15 02:41:10;;;;;;;23.58;10.55;;;-3.50;99.90;;;;;;6220090;23;20005;-83
2021/01/15 02:43:37;;;;;;;23.23;11.00;;;-3.50;99.90;;;;;;6218962;23;20433;-83
2021/01/15 02:46:05;;;;;;;22.33;10.50;;;-3.60;99.90;;;;;;6192720;23;20004;-82
2021/01/15 02:48:33;;;;;;;16.75;9.10;;;-3.60;99.90;;;;;;6218980;23;20432;-81
2021/01/15 02:50:59;;;;;;;20.83;11.40;;;-3.60;99.90;;;;;;6218714;23;20012;-81
2021/01/15 02:53:25;;;;;;;23.42;11.10;;;-3.60;99.90;;;;;;6218686;23;20451;-82
2021/01/15 02:55:51;;;;;;;22.85;11.93;;;-3.60;99.90;;;;;;6191984;23;20376;-82
2021/01/15 02:58:17;;;;;;;20.50;10.70;;;-3.60;99.90;;;;;;6191875;23;20005;-83
2021/01/15 03:00:42;;;;;;;22.83;10.73;;;-3.60;99.90;;;;;;6218869;23;20349;-83
2021/01/15 03:03:27;;;;;;;21.30;11.05;;;-3.70;99.90;;;;;;6218387;23;20086;-82
2021/01/15 03:06:06;;;;;;;20.20;10.77;;;-3.60;99.90;;;;;;6218526;23;20008;-82
2021/01/15 03:08:33;;;;;;;20.77;10.32;;;-3.70;99.90;;;;;;6219348;23;20027;-82
2021/01/15 03:11:04;;;;;;;18.10;8.82;;;-3.70;99.90;;;;;;6191343;23;20071;-82
2021/01/15 03:13:31;;;;;;;16.05;9.05;;;-3.80;99.90;;;;;;6192078;23;20015;-82
2021/01/15 03:16:02;;;;;;;13.20;8.20;;;-3.80;99.90;;;;;;6195060;23;20085;-82
2021/01/15 03:18:30;;;;;;;18.35;8.88;;;-3.80;99.90;;;;;;6219101;23;20008;-82
2021/01/15 03:21:02;;;;;;;17.30;9.27;;;-3.80;99.90;;;;;;6192874;23;20004;-80
2021/01/15 03:23:28;;;;;;;15.77;9.18;;;;;;;;;;6191588;23;20058;-81
2021/01/15 03:25:55;;;;;;;18.92;9.30;;;;;;;;;;6192062;23;20083;-82
2021/01/15 03:28:21;;;;;;;14.75;8.75;;;;;;;;;;6191520;23;20009;-82
2021/01/15 03:30:46;;;;;;;14.65;8.10;;;-3.80;99.90;;;;;;6191974;23;20000;-83
2021/01/15 03:33:12;;;;;;;17.33;10.05;;;-3.80;99.90;;;;;;6218425;23;20001;-83
2021/01/15 03:35:38;;;;;;;20.83;9.40;;;-3.80;99.90;;;;;;6218661;23;20076;-82
2021/01/15 03:38:09;;;;;;;23.13;11.32;;;-3.80;99.90;;;;;;6218509;23;20016;-83
2021/01/15 03:40:47;;;;;;;18.10;9.20;;;-3.80;99.90;;;;;;6219919;23;20007;-83
2021/01/15 03:43:14;;;;;;;17.20;9.75;;;-3.80;99.90;;;;;;6193876;23;20030;-83
2021/01/15 03:45:41;;;;;;;17.80;9.52;;;-3.80;99.90;;;;;;6221367;23;20048;-82
2021/01/15 03:48:07;;;;;;;17.60;8.88;;;-3.80;99.90;;;;;;6193186;23;20340;-83
2021/01/15 03:50:33;;;;;;;18.65;9.98;;;-3.80;99.90;;;;;;6220506;23;19997;-83
2021/01/15 03:52:59;;;;;;;20.10;10.75;;;-3.80;99.90;;;;;;6218689;23;20004;-83
2021/01/15 03:55:25;;;;;;;15.82;9.25;;;-3.80;99.90;;;;;;6219329;23;20005;-84
2021/01/15 03:57:50;;;;;;;21.85;10.02;;;-3.80;99.90;;;;;;6193601;23;20377;-82
2021/01/15 04:00:16;;;;;;;17.88;9.43;;;-3.80;99.90;;;;;;6192068;23;20004;-84
2021/01/15 04:02:42;;;;;;;21.92;11.52;;;-3.80;99.90;;;;;;6219444;23;20471;-84
2021/01/15 04:05:12;;;;;;;16.42;10.32;;;-3.90;99.90;;;;;;6220005;23;20076;-84
2021/01/15 04:07:37;;;;;;;16.95;10.02;;;-3.90;99.90;;;;;;6192161;23;20031;-84
2021/01/15 04:10:06;;;;;;;18.48;10.25;;;-3.90;99.90;;;;;;6219818;23;19996;-84
2021/01/15 04:12:32;;;;;;;20.80;10.82;;;-3.90;99.90;;;;;;6222064;23;20004;-84
2021/01/15 04:14:58;;;;;;;22.02;11.13;;;-3.90;99.90;;;;;;6197819;23;20084;-83
2021/01/15 04:17:24;;;;;;;17.42;9.93;;;-3.80;99.90;;;;;;6225499;23;20004;-81
2021/01/15 04:19:49;;;;;;;18.02;10.93;;;-3.80;99.90;;;;;;6197896;23;20031;-84
2021/01/15 04:22:15;;;;;;;21.17;11.25;;;-3.80;99.90;;;;;;6196202;23;20001;-83
2021/01/15 04:24:41;;;;;;;23.05;11.55;;;-3.80;99.90;;;;;;6223915;23;20008;-80
2021/01/15 04:27:07;;;;;;;21.67;11.32;;;-3.80;99.90;;;;;;6221955;23;20462;-86
2021/01/15 04:29:32;;;;;;;16.98;9.10;;;-3.80;99.90;;;;;;6221514;23;20009;-85
2021/01/15 04:31:58;;;;;;;19.30;10.82;;;-3.80;99.90;;;;;;6221360;23;20007;-80
2021/01/15 04:34:23;;;;;;;20.08;10.95;;;-3.80;99.90;;;;;;6220440;23;20012;-81
2021/01/15 04:36:49;;;;;;;18.48;10.68;;;-3.80;99.90;;;;;;6222246;23;20016;-83
2021/01/15 04:39:15;;;;;;;20.13;11.02;;;-3.80;99.90;;;;;;6194715;23;20015;-83
2021/01/15 04:41:47;;;;;;;20.98;11.07;;;-3.90;99.90;;;;;;6220989;23;20463;-81
2021/01/15 04:44:12;;;;;;;22.55;11.23;;;-3.90;99.90;;;;;;6221304;23;20005;-83
2021/01/15 04:46:40;;;;;;;20.50;11.85;;;-3.90;99.90;;;;;;6194703;23;20064;-83
2021/01/15 04:49:10;;;;;;;22.25;11.40;;;-3.90;99.90;;;;;;6223385;23;20004;-82
2021/01/15 04:51:37;;;;;;;24.35;12.07;;;-3.90;99.90;;;;;;6203246;23;20005;-82
2021/01/15 04:54:16;;;;;;;18.98;10.75;;;-3.90;99.90;;;;;;6196992;23;20008;-83
2021/01/15 04:56:54;;;;;;;20.35;10.85;;;-3.90;99.90;;;;;;6200459;23;20127;-80
2021/01/15 04:59:21;;;;;;;22.25;11.77;;;-3.90;99.90;;;;;;6221094;23;20095;-82
2021/01/15 05:01:49;;;;;;;21.73;11.25;;;-3.90;99.90;;;;;;6194406;23;20027;-82
2021/01/15 05:04:19;;;;;;;22.35;12.13;;;-3.90;99.90;;;;;;6199053;23;20009;-82
2021/01/15 05:06:49;;;;;;;20.80;10.73;;;-3.90;99.90;;;;;;6228967;23;20000;-83
2021/01/15 05:09:17;;;;;;;28.50;14.68;;;-3.90;99.90;;;;;;6197792;23;20064;-82
2021/01/15 05:11:44;;;;;;;23.92;12.05;;;-3.90;99.90;;;;;;6225537;23;20429;-82
2021/01/15 05:14:12;;;;;;;24.17;13.50;;;-3.90;99.90;;;;;;6202205;23;20005;-82
2021/01/15 05:16:40;;;;;;;23.20;12.50;;;-3.90;99.90;;;;;;6232657;23;20011;-83
2021/01/15 05:19:08;;;;;;;22.58;12.20;;;-3.90;99.90;;;;;;6208357;23;20251;-82
2021/01/15 05:21:35;;;;;;;22.38;11.13;;;-3.90;99.90;;;;;;6224161;23;20027;-84
2021/01/15 05:24:01;;;;;;;21.85;11.32;;;-4.00;99.90;;;;;;6220779;23;20437;-83
2021/01/15 05:26:27;;;;;;;19.80;10.77;;;-3.90;99.90;;;;;;6192607;23;20107;-85
2021/01/15 05:28:54;;;;;;;26.95;12.85;;;-4.00;99.90;;;;;;6192928;23;20203;-84
2021/01/15 05:31:21;;;;;;;23.48;12.05;;;-4.00;99.90;;;;;;6192782;23;20070;-83
2021/01/15 05:34:06;;;;;;;22.42;12.32;;;-4.00;99.90;;;;;;6221024;23;19997;-81
2021/01/15 05:36:34;;;;;;;19.98;11.57;;;-4.00;99.90;;;;;;6237299;22;20032;-80
2021/01/15 05:39:08;;;;;;;26.55;12.10;;;-4.00;99.90;;;;;;6236240;22;20009;-79
2021/01/15 05:41:34;;;;;;;27.45;12.52;;;-4.00;99.90;;;;;;6236725;23;20007;-80
2021/01/15 05:44:02;;;;;;;23.30;12.65;;;-4.00;99.90;;;;;;6210621;23;20005;-79
2021/01/15 05:46:28;;;;;;;23.45;13.50;;;-4.00;99.90;;;;;;6236644;22;19989;-80
2021/01/15 05:48:54;;;;;;;33.63;14.65;;;-4.00;99.90;;;;;;6222510;22;20039;-83
2021/01/15 05:51:24;;;;;;;27.02;14.23;;;-4.00;99.90;;;;;;6215181;23;20001;-83
2021/01/15 05:53:50;;;;;;;25.55;13.88;;;-3.90;99.90;;;;;;6215475;23;20432;-82
2021/01/15 05:56:16;;;;;;;28.17;15.43;;;-3.90;99.90;;;;;;6190676;23;20001;-82
2021/01/15 05:59:01;;;;;;;31.75;15.85;;;-4.00;99.90;;;;;;6190298;23;20337;-82
2021/01/15 06:01:57;;;;;;;28.00;14.55;;;-4.10;99.90;;;;;;6216599;23;20108;-81
2021/01/15 06:04:32;;;;;;;23.90;11.45;;;-4.10;99.90;;;;;;6194628;23;20064;-82
2021/01/15 06:07:18;;;;;;;25.63;13.57;;;-4.10;99.90;;;;;;6214203;23;20099;-82
2021/01/15 06:09:45;;;;;;;23.63;11.88;;;-4.10;99.90;;;;;;6216258;23;20103;-82
2021/01/15 06:12:16;;;;;;;22.02;12.00;;;-4.20;99.90;;;;;;6189426;23;20384;-82
2021/01/15 06:15:15;;;;;;;25.88;12.65;;;-4.30;99.90;;;;;;6189362;23;20482;-81
2021/01/15 06:17:38;;;;;;;20.52;12.10;;;-4.40;99.90;;;;;;6214875;23;20355;-82
2021/01/15 06:20:05;;;;;;;25.17;12.15;;;-4.50;99.90;;;;;;6190075;23;20006;-81
2021/01/15 06:22:44;;;;;;;23.80;12.38;;;-4.50;99.90;;;;;;6189770;23;20011;-82
2021/01/15 06:25:12;;;;;;;25.05;12.30;;;-4.50;99.90;;;;;;6217268;23;20031;-83
2021/01/15 06:27:42;;;;;;;25.27;12.77;;;-4.40;99.90;;;;;;6189479;23;20012;-79
2021/01/15 06:30:20;;;;;;;27.88;14.15;;;-4.40;99.90;;;;;;6214734;23;20062;-81
2021/01/15 06:32:47;;;;;;;25.83;13.57;;;-4.40;99.90;;;;;;6215045;23;20008;-81
2021/01/15 06:35:26;;;;;;;24.10;13.18;;;-4.40;99.90;;;;;;6188961;23;20076;-81
2021/01/15 06:38:03;;;;;;;28.40;13.38;;;-4.40;99.90;;;;;;6216842;23;20004;-81
2021/01/15 06:40:32;;;;;;;30.40;14.75;;;-4.40;99.90;;;;;;6217054;23;20028;-82
2021/01/15 06:42:59;;;;;;;30.10;14.20;;;-4.40;99.90;;;;;;6189723;23;20035;-80
2021/01/15 06:45:25;;;;;;;28.10;13.40;;;-4.40;99.90;;;;;;6189492;23;20039;-79
2021/01/15 06:47:53;;;;;;;20.42;10.98;;;-4.40;99.90;;;;;;6215104;23;20008;-78
2021/01/15 06:50:20;;;;;;;31.85;14.45;;;-4.40;99.90;;;;;;6215334;23;20001;-79
2021/01/15 06:52:50;;;;;;;31.33;15.50;;;-4.30;99.90;;;;;;6215565;23;20028;-78
2021/01/15 06:55:24;;;;;;;29.00;13.75;;;-4.20;99.90;;;;;;6215243;23;20050;-79
2021/01/15 06:57:53;;;;;;;32.28;14.07;;;-4.20;99.90;;;;;;6189798;23;20413;-79
2021/01/15 07:00:22;;;;;;;20.55;10.90;;;-4.20;99.90;;;;;;6191022;23;20008;-78
2021/01/15 07:03:27;;;;;;;24.90;12.02;;;-4.10;99.90;;;;;;6188978;23;20305;-79
2021/01/15 07:05:54;;;;;;;28.77;13.75;;;-4.00;99.90;;;;;;6216768;23;20091;-78
2021/01/15 07:08:22;;;;;;;28.33;14.63;;;-3.90;99.90;;;;;;6220256;23;20012;-79
2021/01/15 07:10:49;;;;;;;28.23;12.98;;;-3.80;99.90;;;;;;6216804;23;20011;-79
2021/01/15 07:13:22;;;;;;;26.95;14.52;;;-3.80;99.90;;;;;;6215467;23;19997;-79
2021/01/15 07:15:53;;;;;;;28.42;13.95;;;-3.70;99.90;;;;;;6216071;23;20072;-78
2021/01/15 07:18:47;;;;;;;29.52;13.38;;;-3.70;99.90;;;;;;6188090;23;20032;-78
2021/01/15 07:21:16;;;;;;;30.33;15.25;;;;;;;;;;6214079;23;20060;-78
2021/01/15 07:23:54;;;;;;;33.72;15.48;;;-3.90;99.90;;;;;;6214508;23;20011;-78
2021/01/15 07:26:23;;;;;;;36.55;16.17;;;-4.10;99.90;;;;;;6215491;23;19996;-78
2021/01/15 07:28:57;;;;;;;27.88;12.85;;;-4.00;99.90;;;;;;6215538;23;20011;-78
2021/01/15 07:31:25;;;;;;;34.50;17.23;;;-4.00;99.90;;;;;;6216001;23;20004;-78
2021/01/15 07:34:02;;;;;;;41.55;17.13;;;-3.90;99.90;;;;;;6215836;23;20100;-79
2021/01/15 07:36:38;;;;;;;40.78;19.35;;;-3.90;99.90;;;;;;6188955;23;20009;-78
2021/01/15 07:39:06;;;;;;;39.58;17.95;;;-4.10;99.90;;;;;;6215967;23;20371;-78
2021/01/15 07:41:41;;;;;;;27.02;13.75;;;-4.10;99.90;;;;;;6215996;23;20004;-78
2021/01/15 07:44:24;;;;;;;40.75;18.30;;;-4.10;99.90;;;;;;6217226;23;20015;-80
2021/01/15 07:46:51;;;;;;;39.78;16.25;;;-4.10;99.90;;;;;;6217421;23;20072;-79
2021/01/15 07:49:17;;;;;;;37.22;16.98;;;-4.00;99.90;;;;;;6217585;23;20459;-79
2021/01/15 07:51:43;;;;;;;36.72;15.25;;;-3.90;99.90;;;;;;6190910;23;20024;-78
2021/01/15 07:54:09;;;;;;;33.85;15.57;;;-3.80;99.90;;;;;;6190931;23;20035;-79
2021/01/15 07:56:34;;;;;;;29.88;15.18;;;-3.70;99.90;;;;;;6191220;23;20004;-78
2021/01/15 07:59:00;;;;;;;37.38;17.17;;;-3.60;99.90;;;;;;6219104;23;20008;-79
2021/01/15 08:01:28;;;;;;;34.97;15.43;;;-3.60;99.90;;;;;;6191424;23;20012;-80
2021/01/15 08:03:56;;;;;;;31.25;14.55;;;-3.50;99.90;;;;;;6218824;23;20007;-79
2021/01/15 08:06:22;;;;;;;35.10;15.00;;;-3.40;99.90;;;;;;6218788;23;20015;-79
2021/01/15 08:09:03;;;;;;;27.30;13.32;;;-3.40;99.90;;;;;;6192516;23;20009;-78
2021/01/15 08:11:35;;;;;;;26.42;12.55;;;-3.20;99.90;;;;;;6239084;23;20010;-78
2021/01/15 08:14:20;;;;;;;;;;;-3.10;99.90;;;;;;6239623;23;20026;-78
2021/01/15 08:16:47;;;;;;;35.30;16.33;;;-3.00;99.90;;;;;;6238608;23;19900;-79
2021/01/15 08:19:17;;;;;;;27.15;13.43;;;-2.90;99.90;;;;;;6229610;23;20084;-80
2021/01/15 08:21:45;;;;;;;35.95;17.85;;;-2.80;99.90;;;;;;6220702;23;20389;-79
2021/01/15 08:24:11;;;;;;;33.80;17.02;;;-2.80;99.90;;;;;;6218027;23;20031;-78
2021/01/15 08:26:56;;;;;;;38.60;18.48;;;-2.70;99.90;;;;;;6217845;23;20448;-79
2021/01/15 08:29:23;;;;;;;30.25;16.15;;;-2.70;99.90;;;;;;6218265;23;20031;-80
2021/01/15 08:31:56;;;;;;;36.35;16.67;;;-2.70;99.90;;;;;;6193354;23;20001;-80
2021/01/15 08:34:22;;;;;;;;;;;-2.80;99.90;;;;;;6219495;23;20027;-81
2021/01/15 08:36:56;;;;;;;35.22;17.13;;;-2.90;99.90;;;;;;6215110;23;19904;-81
2021/01/15 08:39:21;;;;;;;34.83;17.08;;;-2.90;99.90;;;;;;6193038;23;20076;-80
2021/01/15 08:41:58;;;;;;;29.00;15.25;;;-2.80;99.90;;;;;;6218398;23;20016;-80
2021/01/15 08:44:24;;;;;;;28.65;15.10;;;-2.80;99.90;;;;;;6190949;23;20009;-79
2021/01/15 08:46:54;;;;;;;28.65;13.73;;;-2.80;99.90;;;;;;6218749;23;20000;-80
2021/01/15 08:49:19;;;;;;;36.90;17.35;;;-2.60;99.90;;;;;;6219714;23;20019;-82
2021/01/15 08:51:50;;;;;;;27.17;14.77;;;-2.50;99.90;;;;;;6221015;23;19996;-81
2021/01/15 08:54:18;;;;;;;26.50;14.82;;;-2.40;99.90;;;;;;6195216;23;20092;-82
2021/01/15 08:56:46;;;;;;;25.10;13.55;;;-2.20;99.90;;;;;;6226273;23;20057;-81
2021/01/15 08:59:30;;;;;;;32.92;15.90;;;-2.10;99.90;;;;;;6230571;23;20056;-81
2021/01/15 09:02:01;;;;;;;30.88;14.77;;;-2.10;98.90;;;;;;6191683;23;20005;-81
2021/01/15 09:04:31;;;;;;;21.42;11.38;;;-2.20;98.80;;;;;;6217568;23;20014;-80
2021/01/15 09:06:58;;;;;;;26.60;12.63;;;-2.20;99.80;;;;;;6191452;23;20007;-79
2021/01/15 09:09:26;;;;;;;28.58;13.27;;;-2.10;99.90;;;;;;6222850;23;20005;-80
2021/01/15 09:11:53;;;;;;;21.98;11.05;;;-2.00;99.90;;;;;;6220071;23;20426;-81
2021/01/15 09:14:24;;;;;;;19.63;11.23;;;-1.90;99.80;;;;;;6220093;23;20015;-81
2021/01/15 09:16:52;;;;;;;23.52;12.05;;;-1.90;99.10;;;;;;6217515;23;20054;-80
2021/01/15 09:19:18;;;;;;;30.95;13.57;;;-1.80;98.90;;;;;;6217763;23;20008;-79
2021/01/15 09:21:46;;;;;;;22.92;13.15;;;-1.80;98.00;;;;;;6219702;23;20000;-81
2021/01/15 09:24:13;;;;;;;21.98;12.10;;;-1.70;98.30;;;;;;6191781;23;20445;-81
2021/01/15 09:26:39;;;;;;;25.85;14.23;;;-1.60;98.40;;;;;;6194853;23;20004;-81
2021/01/15 09:29:05;;;;;;;30.30;15.30;;;-1.50;97.80;;;;;;6218679;23;20154;-81
2021/01/15 09:31:30;;;;;;;22.42;12.60;;;-1.70;96.20;;;;;;6218111;23;20000;-80
2021/01/15 09:33:56;;;;;;;24.38;13.00;;;-1.90;97.00;;;;;;6218161;23;20000;-80
2021/01/15 09:36:26;;;;;;;20.10;11.05;;;-2.00;98.00;;;;;;6218696;23;20001;-80
2021/01/15 09:38:54;;;;;;;20.85;12.05;;;-1.90;98.30;;;;;;6217626;23;20055;-80
2021/01/15 10:53:51;;;;;;;23.17;12.80;;;-0.10;90.30;;;;;;6224363;22;20020;-82
2021/01/15 10:56:17;;;;;;;21.98;12.90;;;-0.30;90.90;;;;;;6222686;23;20032;-82
2021/01/15 10:58:42;;;;;;;21.85;11.98;;;-0.20;91.60;;;;;;6224181;23;20420;-82
2021/01/15 11:01:08;;;;;;;21.90;12.27;;;-0.10;91.80;;;;;;6192300;23;20016;-83
2021/01/15 11:03:33;;;;;;;20.90;11.80;;;0.10;91.60;;;;;;6194457;23;20007;-83
2021/01/15 11:05:59;;;;;;;21.75;11.73;;;0.20;91.40;;;;;;6194416;23;20039;-83
2021/01/15 11:08:25;;;;;;;21.27;11.45;;;0.40;91.50;;;;;;6167714;23;20012;-83
2021/01/15 11:10:50;;;;;;;20.58;11.52;;;0.50;90.60;;;;;;6193908;23;20076;-82
2021/01/15 11:13:16;;;;;;;20.13;11.00;;;0.50;90.10;;;;;;6193199;23;20028;-83
2021/01/15 11:15:42;;;;;;;18.63;10.23;;;0.40;89.10;;;;;;6194471;23;20062;-82
2021/01/15 11:18:07;;;;;;;17.17;9.82;;;0.30;89.70;;;;;;6195676;23;19998;-81
2021/01/15 11:20:33;;;;;;;24.77;11.35;;;0.30;90.30;;;;;;6194462;23;20004;-82
2021/01/15 11:22:59;;;;;;;19.77;10.75;;;0.40;90.10;;;;;;6193908;23;20377;-83
2021/01/15 11:25:24;;;;;;;22.30;11.77;;;0.30;89.60;;;;;;6193791;23;20028;-82
2021/01/15 11:27:50;;;;;;;19.77;10.80;;;0.20;90.00;;;;;;6193313;23;20084;-82
2021/01/15 11:30:16;;;;;;;24.98;13.07;;;0.20;90.70;;;;;;6196442;23;20004;-81
2021/01/15 11:32:42;;;;;;;24.58;12.90;;;0.20;90.40;;;;;;6210882;23;20000;-77
2021/01/15 11:35:08;;;;;;;22.98;12.30;;;0.20;91.20;;;;;;6184236;23;20009;-76
2021/01/15 11:37:35;;;;;;;20.95;12.07;;;0.30;91.30;;;;;;6203993;23;19997;-78
2021/01/15 11:40:08;;;;;;;21.00;11.75;;;0.30;90.80;;;;;;6210579;23;20016;-80
2021/01/15 11:42:34;;;;;;;20.55;10.95;;;;;;;;;;6184948;23;19993;-78
2021/01/15 11:45:00;;;;;;;22.95;11.27;;;0.10;89.00;;;;;;6210572;23;20021;-79
2021/01/15 11:47:26;;;;;;;20.08;10.57;;;-0.10;89.20;;;;;;6207712;23;20024;-82
2021/01/15 11:49:52;;;;;;;20.88;10.25;;;-0.20;90.60;;;;;;6200256;23;20036;-82
2021/01/15 11:52:18;;;;;;;14.65;9.20;;;-0.20;91.40;;;;;;6170201;23;20007;-81
2021/01/15 11:54:43;;;;;;;20.45;11.43;;;-0.10;91.60;;;;;;6198156;23;20005;-84
2021/01/15 11:57:10;;;;;;;20.88;10.77;;;-0.10;90.70;;;;;;6173672;23;20279;-83
2021/01/15 11:59:36;;;;;;;20.05;10.30;;;-0.10;90.10;;;;;;6173933;23;20077;-82
2021/01/15 12:02:01;;;;;;;17.13;9.60;;;-0.20;90.80;;;;;;6196468;23;20013;-80
2021/01/15 12:04:27;;;;;;;16.25;9.20;;;-0.20;91.20;;;;;;6171697;23;20024;-84
2021/01/15 12:06:56;;;;;;;20.25;11.95;;;-0.10;91.00;;;;;;6173886;23;20012;-83
2021/01/15 12:09:23;;;;;;;21.92;11.48;;;0.00;91.00;;;;;;6176256;23;20068;-81
2021/01/15 12:11:49;;;;;;;20.98;11.30;;;0.00;90.60;;;;;;6183421;23;20007;-78
2021/01/15 12:14:15;;;;;;;20.48;10.73;;;0.10;90.30;;;;;;6208204;23;20065;-83
2021/01/15 12:16:41;;;;;;;17.65;9.77;;;0.10;90.70;;;;;;6199423;23;20001;-81
2021/01/15 12:19:09;;;;;;;19.25;10.80;;;0.30;91.00;;;;;;6195504;23;20040;-81
2021/01/15 12:21:36;;;;;;;18.38;10.10;;;0.40;90.20;;;;;;6192611;23;20441;-83
2021/01/15 12:24:03;;;;;;;14.98;8.18;;;0.40;90.10;;;;;;6165830;23;20005;-83
2021/01/15 12:26:38;;;;;;;15.75;9.25;;;0.50;90.20;;;;;;6191182;23;19997;-83
2021/01/15 12:29:04;;;;;;;17.27;9.80;;;0.70;90.00;;;;;;6190922;23;20449;-83
2021/01/15 12:31:29;;;;;;;17.95;10.07;;;0.80;88.70;;;;;;6191180;23;20008;-83
2021/01/15 12:33:55;;;;;;;15.40;8.68;;;0.90;88.40;;;;;;6191323;23;20342;-83
2021/01/15 12:36:21;;;;;;;16.40;10.05;;;1.10;87.70;;;;;;6191976;23;20008;-84
2021/01/15 12:38:47;;;;;;;20.38;9.65;;;1.10;86.30;;;;;;6191232;23;20008;-78
2021/01/15 12:41:12;;;;;;;16.40;9.23;;;1.30;85.50;;;;;;6164996;23;20001;-81
2021/01/15 12:43:40;;;;;;;14.65;8.15;;;1.30;83.60;;;;;;6189569;23;20005;-80
2021/01/15 12:46:10;;;;;;;16.75;9.35;;;1.90;88.70;;;;;;6192735;23;20021;-85
2021/01/15 12:48:36;;;;;;;15.88;8.80;;;2.80;78.90;;;;;;6198028;23;20080;-82
2021/01/15 12:51:02;;;;;;;11.55;7.25;;;3.20;74.40;;;;;;6178003;23;20008;-83
2021/01/15 12:53:27;;;;;;;12.45;7.80;;;3.80;74.10;;;;;;6191609;23;20013;-84
2021/01/15 12:55:53;;;;;;;12.27;7.70;;;4.50;73.30;;;;;;6165977;23;20005;-82
2021/01/15 12:58:19;;;;;;;12.45;6.82;;;4.90;68.40;;;;;;6195576;23;20012;-80
2021/01/15 13:00:47;;;;;;;12.20;7.18;;;;;;;;;;6210778;23;20036;-81
2021/01/15 13:03:12;;;;;;;10.10;6.70;;;6.00;63.60;;;;;;6184947;23;20378;-80
2021/01/15 13:05:38;;;;;;;9.00;6.43;;;6.10;59.40;;;;;;6211549;23;20016;-79
2021/01/15 13:08:05;;;;;;;9.68;5.85;;;6.50;60.50;;;;;;6208735;23;20313;-83
2021/01/15 13:10:32;;;;;;;15.30;9.05;;;6.70;59.80;;;;;;6192784;23;19997;-83
2021/01/15 13:12:58;;;;;;;13.23;8.73;;;6.50;57.50;;;;;;6163044;23;20002;-82
2021/01/15 13:15:23;;;;;;;12.38;8.30;;;5.70;58.30;;;;;;6184332;23;20024;-78
2021/01/15 13:17:51;;;;;;;11.80;8.43;;;4.50;59.70;;;;;;6184462;23;20004;-79
2021/01/15 13:20:17;;;;;;;13.18;8.48;;;3.70;63.70;;;;;;6210955;23;20013;-80
2021/01/15 13:22:43;;;;;;;15.68;8.65;;;2.90;67.30;;;;;;6202475;23;19998;-83
2021/01/15 13:25:10;;;;;;;13.60;8.60;;;2.50;69.70;;;;;;6191818;23;20013;-84
2021/01/15 13:27:43;;;;;;;15.60;8.45;;;2.00;72.20;;;;;;6165185;23;20011;-84
2021/01/15 13:30:10;;;;;;;16.13;8.50;;;;;;;;;;6169231;23;19997;-84
2021/01/15 13:32:36;;;;;;;13.60;8.40;;;1.60;92.30;;;;;;6203158;23;20024;-81
2021/01/15 13:35:03;;;;;;;13.85;7.97;;;1.20;77.90;;;;;;6180886;23;20008;-80
2021/01/15 13:37:34;;;;;;;14.88;8.40;;;1.00;79.20;;;;;;6207340;23;19985;-79
2021/01/15 13:40:00;;;;;;;14.70;8.60;;;0.90;80.20;;;;;;6207118;23;20001;-83
2021/01/15 13:42:25;;;;;;;17.33;9.32;;;0.70;80.90;;;;;;6201444;23;20117;-80
2021/01/15 13:44:51;;;;;;;16.08;8.90;;;0.60;81.60;;;;;;6179350;23;20005;-82
2021/01/15 13:47:16;;;;;;;18.98;9.55;;;0.50;82.60;;;;;;6201128;23;20034;-81
2021/01/15 13:49:42;;;;;;;12.45;7.95;;;0.40;83.60;;;;;;6199005;23;20012;-83
2021/01/15 13:52:09;;;;;;;15.73;8.73;;;0.30;84.30;;;;;;6198786;23;20429;-83
2021/01/15 13:54:34;;;;;;;14.38;8.77;;;0.30;85.10;;;;;;6197547;23;20001;-82
2021/01/15 13:57:00;;;;;;;15.70;9.13;;;0.20;85.20;;;;;;6196325;23;20005;-83